createdAt,value
2022-10-30T00:00:41.362Z,10.51
2022-10-30T00:03:16.038Z,10.48
2022-10-30T00:05:47.322Z,10.47
2022-10-30T00:08:16.154Z,10.44
2022-10-30T00:10:43.842Z,10.41
2022-10-30T00:13:11.432Z,10.42
2022-10-30T00:15:38.688Z,10.39
2022-10-30T00:18:06.737Z,10.36
2022-10-30T00:20:36.192Z,10.34
2022-10-30T00:23:03.235Z,10.37
2022-10-30T00:25:30.240Z,10.34
2022-10-30T00:27:57.329Z,10.34
2022-10-30T00:30:24.326Z,10.32
2022-10-30T00:32:51.340Z,10.29
2022-10-30T00:35:18.331Z,10.21
2022-10-30T00:37:45.288Z,10.21
2022-10-30T00:40:15.616Z,10.19
2022-10-30T00:42:42.732Z,10.13
2022-10-30T00:45:15.015Z,10.11
2022-10-30T00:47:54.474Z,10.10
2022-10-30T00:50:30.194Z,10.05
2022-10-30T00:53:03.407Z,10.00
2022-10-30T00:55:39.042Z,9.98
2022-10-30T00:58:10.830Z,10.02
2022-10-30T01:00:42.070Z,10.02
2022-10-30T01:03:09.462Z,9.99
2022-10-30T01:05:36.716Z,10.01
2022-10-30T01:08:04.316Z,9.99
2022-10-30T01:10:31.398Z,9.99
2022-10-30T01:13:00.340Z,9.97
2022-10-30T01:15:33.264Z,9.96
2022-10-30T01:18:31.297Z,9.95
2022-10-30T01:21:14.129Z,9.97
2022-10-30T01:23:56.723Z,9.96
2022-10-30T01:26:50.024Z,9.95
2022-10-30T01:29:38.507Z,9.94
2022-10-30T01:32:25.165Z,9.88
2022-10-30T01:35:02.264Z,9.81
2022-10-30T01:37:57.671Z,9.80
2022-10-30T01:40:24.963Z,9.72
2022-10-30T01:42:58.635Z,9.75
2022-10-30T01:45:47.676Z,9.76
2022-10-30T01:48:44.405Z,9.76
2022-10-30T01:51:33.907Z,9.76
2022-10-30T01:54:23.645Z,9.74
2022-10-30T01:57:24.840Z,9.71
2022-10-30T02:00:11.115Z,9.67
2022-10-30T02:02:41.970Z,9.61
2022-10-30T02:05:19.839Z,9.61
2022-10-30T02:07:47.767Z,9.58
2022-10-30T02:10:15.015Z,9.56
2022-10-30T02:12:42.472Z,9.53
2022-10-30T02:15:11.621Z,9.49
2022-10-30T02:17:39.000Z,9.48
2022-10-30T02:20:07.582Z,9.48
2022-10-30T02:22:34.641Z,9.47
2022-10-30T02:25:01.605Z,9.46
2022-10-30T02:27:28.900Z,9.44
2022-10-30T02:29:55.890Z,9.44
2022-10-30T02:32:22.892Z,9.41
2022-10-30T02:34:49.852Z,9.37
2022-10-30T02:37:16.828Z,9.33
2022-10-30T02:39:44.088Z,9.26
2022-10-30T02:42:11.112Z,9.24
2022-10-30T02:44:38.141Z,9.21
2022-10-30T02:47:05.188Z,9.19
2022-10-30T02:49:32.353Z,9.20
2022-10-30T02:52:00.559Z,9.20
2022-10-30T02:54:27.558Z,9.21
2022-10-30T02:56:54.683Z,9.19
2022-10-30T02:59:22.003Z,9.17
2022-10-30T03:01:50.549Z,9.13
2022-10-30T03:04:17.603Z,9.06
2022-10-30T03:06:44.580Z,9.02
2022-10-30T03:09:11.562Z,9.00
2022-10-30T03:11:38.568Z,8.96
2022-10-30T03:14:05.686Z,8.94
2022-10-30T03:16:32.704Z,8.88
2022-10-30T03:18:59.946Z,8.89
2022-10-30T03:21:28.054Z,8.88
2022-10-30T03:23:55.629Z,8.88
2022-10-30T03:26:23.208Z,8.91
2022-10-30T03:29:04.993Z,8.91
2022-10-30T03:31:32.774Z,8.90
2022-10-30T03:34:27.293Z,8.86
2022-10-30T03:36:54.585Z,8.87
2022-10-30T03:39:21.726Z,8.87
2022-10-30T03:41:48.813Z,8.83
2022-10-30T03:44:15.785Z,8.84
2022-10-30T03:46:42.749Z,8.83
2022-10-30T03:49:31.518Z,8.80
2022-10-30T03:52:00.663Z,8.79
2022-10-30T03:54:27.744Z,8.77
2022-10-30T03:56:54.721Z,8.73
2022-10-30T03:59:23.244Z,8.70
2022-10-30T04:02:17.099Z,8.71
2022-10-30T04:04:44.392Z,8.70
2022-10-30T04:07:11.417Z,8.65
2022-10-30T04:09:38.397Z,8.67
2022-10-30T04:12:05.705Z,8.67
2022-10-30T04:14:32.674Z,8.66
2022-10-30T04:16:59.710Z,8.69
2022-10-30T04:19:26.741Z,8.69
2022-10-30T04:21:53.774Z,8.70
2022-10-30T04:24:20.834Z,8.69
2022-10-30T04:26:52.502Z,8.67
2022-10-30T04:29:19.534Z,8.68
2022-10-30T04:31:46.557Z,8.67
2022-10-30T04:34:14.226Z,8.66
2022-10-30T04:36:41.310Z,8.68
2022-10-30T04:39:08.317Z,8.71
2022-10-30T04:41:35.453Z,8.72
2022-10-30T04:44:08.696Z,8.75
2022-10-30T04:46:35.818Z,8.70
2022-10-30T04:49:08.308Z,8.66
2022-10-30T04:51:35.645Z,8.64
2022-10-30T04:54:04.095Z,8.63
2022-10-30T04:56:31.839Z,8.63
2022-10-30T04:58:59.602Z,8.55
2022-10-30T05:01:26.681Z,8.54
2022-10-30T05:03:55.002Z,8.49
2022-10-30T05:06:25.974Z,8.44
2022-10-30T05:08:53.390Z,8.42
2022-10-30T05:11:32.198Z,8.30
2022-10-30T05:13:59.186Z,8.37
2022-10-30T05:16:26.424Z,8.39
2022-10-30T05:18:55.162Z,8.38
2022-10-30T05:21:22.283Z,8.41
2022-10-30T05:23:49.321Z,8.48
2022-10-30T05:26:16.453Z,8.49
2022-10-30T05:28:43.562Z,8.46
2022-10-30T05:31:10.612Z,8.50
2022-10-30T05:33:58.644Z,8.57
2022-10-30T05:36:26.610Z,8.61
2022-10-30T05:38:54.651Z,8.63
2022-10-30T05:41:32.500Z,8.67
2022-10-30T05:43:59.657Z,8.69
2022-10-30T05:46:26.762Z,8.70
2022-10-30T05:48:58.793Z,8.67
2022-10-30T05:51:25.823Z,8.69
2022-10-30T05:53:56.186Z,8.68
2022-10-30T05:56:27.075Z,8.75
2022-10-30T05:58:56.543Z,8.78
2022-10-30T06:01:23.723Z,8.78
2022-10-30T06:03:54.274Z,8.80
2022-10-30T06:06:21.307Z,8.82
2022-10-30T06:08:48.304Z,8.85
2022-10-30T06:11:29.769Z,8.88
2022-10-30T06:13:59.286Z,8.88
2022-10-30T06:16:47.280Z,8.89
2022-10-30T06:19:34.481Z,8.92
2022-10-30T06:22:21.132Z,8.95
2022-10-30T06:24:54.095Z,8.96
2022-10-30T06:27:37.239Z,8.97
2022-10-30T06:30:04.776Z,8.99
2022-10-30T06:32:31.825Z,8.98
2022-10-30T06:34:58.902Z,8.97
2022-10-30T06:37:25.923Z,8.92
2022-10-30T06:39:53.242Z,8.91
2022-10-30T06:42:47.544Z,8.97
2022-10-30T06:45:32.110Z,9.01
2022-10-30T06:48:02.584Z,9.09
2022-10-30T06:50:34.447Z,9.17
2022-10-30T06:53:01.453Z,9.24
2022-10-30T06:55:28.527Z,9.25
2022-10-30T06:58:11.762Z,9.31
2022-10-30T07:03:17.540Z,9.39
2022-10-30T07:05:44.624Z,9.47
2022-10-30T07:08:12.165Z,9.51
2022-10-30T07:10:40.260Z,9.61
2022-10-30T07:13:21.722Z,9.73
2022-10-30T07:16:23.117Z,9.74
2022-10-30T07:18:51.044Z,9.67
2022-10-30T07:21:18.170Z,9.70
2022-10-30T07:23:45.211Z,9.76
2022-10-30T07:26:22.206Z,9.84
2022-10-30T07:28:50.807Z,9.96
2022-10-30T07:31:41.844Z,10.01
2022-10-30T07:34:28.274Z,10.09
2022-10-30T07:37:13.788Z,10.21
2022-10-30T07:39:45.549Z,10.35
2022-10-30T07:42:19.144Z,10.47
2022-10-30T07:45:05.177Z,10.62
2022-10-30T07:47:44.335Z,10.66
2022-10-30T07:50:17.645Z,10.74
2022-10-30T07:52:44.811Z,10.87
2022-10-30T07:55:11.839Z,10.96
2022-10-30T07:57:59.368Z,11.17
2022-10-30T08:00:45.254Z,11.21
2022-10-30T08:03:21.847Z,11.40
2022-10-30T08:05:55.091Z,11.52
2022-10-30T08:08:39.105Z,11.65
2022-10-30T08:11:23.574Z,11.77
2022-10-30T08:13:50.796Z,11.85
2022-10-30T08:16:18.302Z,11.76
2022-10-30T08:18:45.277Z,11.81
2022-10-30T08:21:12.373Z,11.82
2022-10-30T08:23:50.411Z,11.81
2022-10-30T08:26:17.661Z,11.89
2022-10-30T08:28:44.863Z,12.05
2022-10-30T08:31:12.836Z,12.19
2022-10-30T08:33:58.280Z,12.35
2022-10-30T08:36:38.006Z,12.36
2022-10-30T08:39:05.150Z,12.48
2022-10-30T08:42:01.545Z,12.65
2022-10-30T08:44:34.523Z,12.75
2022-10-30T08:47:20.141Z,12.94
2022-10-30T08:49:47.509Z,13.06
2022-10-30T08:52:17.483Z,13.21
2022-10-30T08:54:48.397Z,13.19
2022-10-30T08:57:15.906Z,13.33
2022-10-30T08:59:42.918Z,13.48
2022-10-30T09:02:20.949Z,13.61
2022-10-30T09:05:14.359Z,13.76
2022-10-30T09:08:10.697Z,13.94
2022-10-30T09:10:59.249Z,14.00
2022-10-30T09:13:27.115Z,14.16
2022-10-30T09:16:00.628Z,14.21
2022-10-30T09:18:29.049Z,14.30
2022-10-30T09:20:56.069Z,14.47
2022-10-30T09:23:23.119Z,14.60
2022-10-30T09:25:57.665Z,14.67
2022-10-30T09:28:38.029Z,14.74
2022-10-30T09:31:23.770Z,14.80
2022-10-30T09:33:50.879Z,14.89
2022-10-30T09:36:41.537Z,14.97
2022-10-30T09:39:08.528Z,15.00
2022-10-30T09:41:50.209Z,15.14
2022-10-30T09:44:26.107Z,15.27
2022-10-30T09:46:59.189Z,15.38
2022-10-30T09:49:33.241Z,15.41
2022-10-30T09:52:06.306Z,15.54
2022-10-30T09:55:09.897Z,15.67
2022-10-30T09:57:46.022Z,15.79
2022-10-30T10:00:16.575Z,15.88
2022-10-30T10:03:12.921Z,16.00
2022-10-30T10:06:02.563Z,16.10
2022-10-30T10:08:59.509Z,16.22
2022-10-30T10:12:09.774Z,16.40
2022-10-30T10:14:42.527Z,16.48
2022-10-30T10:17:13.558Z,16.60
2022-10-30T10:19:52.830Z,16.69
2022-10-30T10:22:22.436Z,16.83
2022-10-30T10:24:49.634Z,16.92
2022-10-30T10:27:54.051Z,17.00
2022-10-30T10:30:23.359Z,17.14
2022-10-30T10:33:24.525Z,17.25
2022-10-30T10:36:16.670Z,17.39
2022-10-30T10:39:02.070Z,17.47
2022-10-30T10:42:03.034Z,17.59
2022-10-30T10:44:42.003Z,17.69
2022-10-30T10:47:11.937Z,17.79
2022-10-30T10:49:44.891Z,17.89
2022-10-30T10:52:19.035Z,17.98
2022-10-30T10:54:51.947Z,18.09
2022-10-30T10:57:28.781Z,18.13
2022-10-30T11:00:15.788Z,18.24
2022-10-30T11:02:51.746Z,18.30
2022-10-30T11:05:31.959Z,18.39
2022-10-30T11:08:10.565Z,18.46
2022-10-30T11:10:37.622Z,18.50
2022-10-30T11:13:04.599Z,18.61
2022-10-30T11:15:40.096Z,18.67
2022-10-30T11:18:09.722Z,18.75
2022-10-30T11:20:42.287Z,18.74
2022-10-30T11:23:47.271Z,18.79
2022-10-30T11:26:17.158Z,18.86
2022-10-30T11:29:02.955Z,18.91
2022-10-30T11:31:35.472Z,19.04
2022-10-30T11:34:24.757Z,19.10
2022-10-30T11:36:53.498Z,19.16
2022-10-30T11:39:24.072Z,19.15
2022-10-30T11:42:04.668Z,19.14
2022-10-30T11:44:39.941Z,19.15
2022-10-30T11:47:08.351Z,19.24
2022-10-30T11:49:39.252Z,19.26
2022-10-30T11:52:07.820Z,19.30
2022-10-30T11:54:41.742Z,19.40
2022-10-30T11:57:22.948Z,19.43
2022-10-30T11:59:54.094Z,19.51
2022-10-30T12:02:24.303Z,19.54
2022-10-30T12:04:51.375Z,19.59
2022-10-30T12:07:24.424Z,19.69
2022-10-30T12:09:51.483Z,19.76
2022-10-30T12:12:23.358Z,19.76
2022-10-30T12:14:51.995Z,19.78
2022-10-30T12:17:21.372Z,19.84
2022-10-30T12:19:54.005Z,19.86
2022-10-30T12:22:28.286Z,19.92
2022-10-30T12:24:56.569Z,19.89
2022-10-30T12:27:24.073Z,19.93
2022-10-30T12:30:10.388Z,20.01
2022-10-30T12:32:56.483Z,20.06
2022-10-30T12:35:42.191Z,20.08
2022-10-30T12:38:21.756Z,20.08
2022-10-30T12:41:14.402Z,20.05
2022-10-30T12:43:46.002Z,20.01
2022-10-30T12:46:21.564Z,20.05
2022-10-30T12:48:56.210Z,19.95
2022-10-30T12:51:35.580Z,19.78
2022-10-30T12:54:20.768Z,19.83
2022-10-30T12:56:51.762Z,19.70
2022-10-30T12:59:39.238Z,19.73
2022-10-30T13:02:44.567Z,19.66
2022-10-30T13:05:36.207Z,19.55
2022-10-30T13:08:21.365Z,19.38
2022-10-30T13:11:10.437Z,19.40
2022-10-30T13:13:42.773Z,19.41
2022-10-30T13:16:30.053Z,19.32
2022-10-30T13:19:00.321Z,19.25
2022-10-30T13:21:56.908Z,19.17
2022-10-30T13:24:42.614Z,19.10
2022-10-30T13:27:23.526Z,19.06
2022-10-30T13:30:05.636Z,19.09
2022-10-30T13:32:38.741Z,19.05
2022-10-30T13:35:24.200Z,18.89
2022-10-30T13:38:14.873Z,18.89
2022-10-30T13:41:01.611Z,18.89
2022-10-30T13:43:43.415Z,18.92
2022-10-30T13:46:16.331Z,18.92
2022-10-30T13:48:58.490Z,19.07
2022-10-30T13:51:52.857Z,19.08
2022-10-30T13:54:32.289Z,19.11
2022-10-30T13:57:26.117Z,19.05
2022-10-30T14:00:02.014Z,19.25
2022-10-30T14:02:45.315Z,19.16
2022-10-30T14:05:35.039Z,19.17
2022-10-30T14:08:33.533Z,19.03
2022-10-30T14:11:01.192Z,18.97
2022-10-30T14:13:43.944Z,18.94
2022-10-30T14:16:46.547Z,18.74
2022-10-30T14:19:15.246Z,18.68
2022-10-30T14:21:51.069Z,18.63
2022-10-30T14:24:24.698Z,18.44
2022-10-30T14:26:54.840Z,18.35
2022-10-30T14:29:40.740Z,18.17
2022-10-30T14:32:27.931Z,18.03
2022-10-30T14:34:54.903Z,18.00
2022-10-30T14:37:24.918Z,17.89
2022-10-30T14:39:52.321Z,17.83
2022-10-30T14:42:39.363Z,17.69
2022-10-30T14:45:15.224Z,17.64
2022-10-30T14:47:49.498Z,17.48
2022-10-30T14:50:34.867Z,17.45
2022-10-30T14:53:40.468Z,17.34
2022-10-30T14:56:13.298Z,17.24
2022-10-30T14:58:40.806Z,17.16
2022-10-30T15:01:28.314Z,17.12
2022-10-30T15:04:19.435Z,17.06
2022-10-30T15:07:11.473Z,16.99
2022-10-30T15:10:06.483Z,16.90
2022-10-30T15:12:52.247Z,16.77
2022-10-30T15:15:19.400Z,16.71
2022-10-30T15:17:49.182Z,16.62
2022-10-30T15:20:32.950Z,16.58
2022-10-30T15:23:06.806Z,16.51
2022-10-30T15:25:38.004Z,16.42
2022-10-30T15:28:05.912Z,16.34
2022-10-30T15:30:32.920Z,16.31
2022-10-30T15:33:00.356Z,16.23
2022-10-30T15:35:29.139Z,16.22
2022-10-30T15:37:57.788Z,16.18
2022-10-30T15:40:25.243Z,16.08
2022-10-30T15:42:53.420Z,15.99
2022-10-30T15:45:25.069Z,15.91
2022-10-30T15:47:57.827Z,15.85
2022-10-30T15:50:25.356Z,15.77
2022-10-30T15:52:52.479Z,15.71
2022-10-30T15:55:25.989Z,15.65
2022-10-30T15:58:12.972Z,15.56
2022-10-30T16:00:40.312Z,15.47
2022-10-30T16:03:13.102Z,15.37
2022-10-30T16:05:40.199Z,15.37
2022-10-30T16:08:20.730Z,15.27
2022-10-30T16:10:48.998Z,15.18
2022-10-30T16:13:18.265Z,15.06
2022-10-30T16:15:46.590Z,14.95
2022-10-30T16:18:19.272Z,14.88
2022-10-30T16:20:58.096Z,14.81
2022-10-30T16:23:25.172Z,14.77
2022-10-30T16:25:57.723Z,14.74
2022-10-30T16:28:34.792Z,14.68
2022-10-30T16:31:05.663Z,14.59
2022-10-30T16:33:35.105Z,14.50
2022-10-30T16:36:04.596Z,14.41
2022-10-30T16:38:35.275Z,14.33
2022-10-30T16:41:05.907Z,14.28
2022-10-30T16:43:34.716Z,14.22
2022-10-30T16:46:32.401Z,14.18
2022-10-30T16:49:03.442Z,14.11
2022-10-30T16:51:30.796Z,14.11
2022-10-30T16:53:57.810Z,14.05
2022-10-30T16:56:27.948Z,14.01
2022-10-30T16:59:05.111Z,13.97
2022-10-30T17:01:32.903Z,13.95
2022-10-30T17:04:00.385Z,13.90
2022-10-30T17:06:42.292Z,13.85
2022-10-30T17:09:10.703Z,13.82
2022-10-30T17:11:44.616Z,13.80
2022-10-30T17:14:20.005Z,13.76
2022-10-30T17:16:56.281Z,13.73
2022-10-30T17:19:32.399Z,13.69
2022-10-30T17:22:02.372Z,13.65
2022-10-30T17:24:35.029Z,13.60
2022-10-30T17:27:04.615Z,13.57
2022-10-30T17:29:37.603Z,13.49
2022-10-30T17:32:05.986Z,13.45
2022-10-30T17:34:39.092Z,13.41
2022-10-30T17:37:06.059Z,13.33
2022-10-30T17:39:33.042Z,13.28
2022-10-30T17:42:00.055Z,13.19
2022-10-30T17:44:31.171Z,13.16
2022-10-30T17:46:58.551Z,13.09
2022-10-30T17:49:29.034Z,13.05
2022-10-30T17:51:56.063Z,12.98
2022-10-30T17:54:23.623Z,12.87
2022-10-30T17:56:50.599Z,12.83
2022-10-30T17:59:17.870Z,12.79
2022-10-30T18:01:44.997Z,12.75
2022-10-30T18:04:20.480Z,12.71
2022-10-30T18:06:48.497Z,12.65
2022-10-30T18:09:15.802Z,12.62
2022-10-30T18:11:42.902Z,12.54
2022-10-30T18:14:11.278Z,12.44
2022-10-30T18:16:39.021Z,12.39
2022-10-30T18:19:10.452Z,12.31
2022-10-30T18:21:37.838Z,12.28
2022-10-30T18:24:15.162Z,12.24
2022-10-30T18:26:42.160Z,12.21
2022-10-30T18:29:09.700Z,12.21
2022-10-30T18:31:37.926Z,12.18
2022-10-30T18:34:13.811Z,12.15
2022-10-30T18:36:40.825Z,12.12
2022-10-30T18:39:07.822Z,12.08
2022-10-30T18:41:37.807Z,12.00
2022-10-30T18:44:05.019Z,11.90
2022-10-30T18:46:33.363Z,11.92
2022-10-30T18:49:00.421Z,11.89
2022-10-30T18:51:28.456Z,11.88
2022-10-30T18:53:55.742Z,11.84
2022-10-30T18:56:31.274Z,11.79
2022-10-30T18:59:02.139Z,11.76
2022-10-30T19:01:33.026Z,11.71
2022-10-30T19:04:00.559Z,11.67
2022-10-30T19:06:27.621Z,11.61
2022-10-30T19:08:54.773Z,11.52
2022-10-30T19:11:24.979Z,11.46
2022-10-30T19:13:53.909Z,11.39
2022-10-30T19:16:21.758Z,11.31
2022-10-30T19:18:48.922Z,11.29
2022-10-30T19:21:18.160Z,11.26
2022-10-30T19:23:45.481Z,11.24
2022-10-30T19:26:12.622Z,11.22
2022-10-30T19:28:40.229Z,11.19
2022-10-30T19:31:07.851Z,11.11
2022-10-30T19:33:34.876Z,11.09
2022-10-30T19:36:04.171Z,11.02
2022-10-30T19:38:32.029Z,11.00
2022-10-30T19:41:00.770Z,10.96
2022-10-30T19:43:27.773Z,10.93
2022-10-30T19:45:55.990Z,10.90
2022-10-30T19:51:11.087Z,10.81
2022-10-30T19:53:38.895Z,10.85
2022-10-30T19:56:06.289Z,10.79
2022-10-30T19:58:33.276Z,10.74
2022-10-30T20:01:00.317Z,10.67
2022-10-30T20:03:27.412Z,10.61
2022-10-30T20:05:54.426Z,10.61
2022-10-30T20:08:23.267Z,10.56
2022-10-30T20:10:57.156Z,10.53
2022-10-30T20:13:25.940Z,10.45
2022-10-30T20:15:54.484Z,10.44
2022-10-30T20:18:27.832Z,10.40
2022-10-30T20:20:57.197Z,10.36
2022-10-30T20:23:24.979Z,10.31
2022-10-30T20:25:53.980Z,10.29
2022-10-30T20:28:22.618Z,10.29
2022-10-30T20:30:51.009Z,10.24
2022-10-30T20:33:19.026Z,10.21
2022-10-30T20:35:48.525Z,10.18
2022-10-30T20:38:18.060Z,10.15
2022-10-30T20:40:48.766Z,10.08
2022-10-30T20:43:18.686Z,10.10
2022-10-30T20:45:45.922Z,10.10
2022-10-30T20:48:13.343Z,10.05
2022-10-30T20:50:41.579Z,10.06
2022-10-30T20:53:12.793Z,10.02
2022-10-30T20:55:40.540Z,9.99
2022-10-30T20:58:07.760Z,9.93
2022-10-30T21:00:34.771Z,9.85
2022-10-30T21:03:03.305Z,9.76
2022-10-30T21:05:48.548Z,9.72
2022-10-30T21:08:15.580Z,9.68
2022-10-30T21:10:42.648Z,9.63
2022-10-30T21:13:11.064Z,9.61
2022-10-30T21:15:43.136Z,9.56
2022-10-30T21:18:12.897Z,9.55
2022-10-30T21:20:40.301Z,9.54
2022-10-30T21:23:07.818Z,9.51
2022-10-30T21:25:35.047Z,9.51
2022-10-30T21:28:02.528Z,9.50
2022-10-30T21:30:30.309Z,9.45
2022-10-30T21:32:58.854Z,9.45
2022-10-30T21:35:26.787Z,9.41
2022-10-30T21:37:53.992Z,9.39
2022-10-30T21:40:21.008Z,9.39
2022-10-30T21:42:48.513Z,9.36
2022-10-30T21:45:15.833Z,9.31
2022-10-30T21:47:42.849Z,9.27
2022-10-30T21:50:12.246Z,9.26
2022-10-30T21:52:40.416Z,9.24
2022-10-30T21:55:07.995Z,9.22
2022-10-30T21:57:35.480Z,9.21
2022-10-30T22:00:05.767Z,9.19
2022-10-30T22:02:35.564Z,9.16
2022-10-30T22:05:02.559Z,9.11
2022-10-30T22:07:30.563Z,9.09
2022-10-30T22:09:57.699Z,9.05
2022-10-30T22:12:24.678Z,9.05
2022-10-30T22:14:51.742Z,8.98
2022-10-30T22:17:18.847Z,8.93
2022-10-30T22:19:45.855Z,8.88
2022-10-30T22:22:12.902Z,8.86
2022-10-30T22:24:39.933Z,8.83
2022-10-30T22:27:06.964Z,8.76
2022-10-30T22:29:34.086Z,8.73
2022-10-30T22:32:01.131Z,8.68
2022-10-30T22:34:28.265Z,8.70
2022-10-30T22:36:55.273Z,8.66
2022-10-30T22:39:22.733Z,8.67
2022-10-30T22:41:49.711Z,8.67
2022-10-30T22:44:16.706Z,8.62
2022-10-30T22:46:43.819Z,8.63
2022-10-30T22:49:11.490Z,8.57
2022-10-30T22:51:39.432Z,8.57
2022-10-30T22:54:11.069Z,8.55
2022-10-30T22:56:39.134Z,8.51
2022-10-30T22:59:10.604Z,8.49
2022-10-30T23:01:38.594Z,8.44
2022-10-30T23:04:07.157Z,8.44
2022-10-30T23:06:35.265Z,8.41
2022-10-30T23:09:06.285Z,8.40
2022-10-30T23:11:33.706Z,8.40
2022-10-30T23:14:00.910Z,8.36
2022-10-30T23:16:28.309Z,8.34
2022-10-30T23:18:57.476Z,8.24
2022-10-30T23:21:26.152Z,8.17
2022-10-30T23:23:54.083Z,8.16
2022-10-30T23:26:24.359Z,8.14
2022-10-30T23:28:52.937Z,8.11
2022-10-30T23:31:35.981Z,8.06
2022-10-30T23:34:06.740Z,8.04
2022-10-30T23:36:33.816Z,8.01
2022-10-30T23:39:02.571Z,7.95
2022-10-30T23:41:31.548Z,7.94
2022-10-30T23:44:01.383Z,7.91
2022-10-30T23:46:29.499Z,7.90
2022-10-30T23:48:57.175Z,7.92
2022-10-30T23:51:24.937Z,7.87
2022-10-30T23:53:52.007Z,7.86
2022-10-30T23:56:19.773Z,7.86
2022-10-30T23:58:48.906Z,7.86
